Weimar, Texas
Current Conditions -  °F | °C
As of 8:35 AM on Saturday 25 Oct 2014 (Local Time) from K66R Reporting Station
Clear Clear  
Wind Chill: 60°   Ceiling: Unl
Heat Index: 60°   Visibility: 7mi
Dew Point: 59°   Wind: 0mph
Humidity: 95%   Direction: NA
Pressure: 30.17"   Gusts: NA
Location:  29.7°N, 96.78°W
Report Text: K66R 251335Z AUTO 00000KT 7SM CLR 16/15 A3017 RMK AO2 T01570149
Loading
Personal Weather Stations






























Interactive Weather Map New forecast layout! Learn more

10-Day Weather Forecast

Advertisements
Track Severe Weather on mobile